sensor_id;sensor_type;location;lat;lon;timestamp;P1;durP1;ratioP1;P2;durP2;ratioP2
6999;SDS011;3540;53.242;10.408;2022-09-17T00:01:15;27.63;;;4.83;;
6999;SDS011;3540;53.242;10.408;2022-09-17T00:03:43;24.43;;;3.97;;
6999;SDS011;3540;53.242;10.408;2022-09-17T00:06:12;22.50;;;3.93;;
6999;SDS011;3540;53.242;10.408;2022-09-17T00:08:38;20.03;;;4.03;;
6999;SDS011;3540;53.242;10.408;2022-09-17T00:11:09;25.07;;;4.13;;
6999;SDS011;3540;53.242;10.408;2022-09-17T00:13:38;28.53;;;4.17;;
6999;SDS011;3540;53.242;10.408;2022-09-17T00:16:04;22.93;;;4.00;;
6999;SDS011;3540;53.242;10.408;2022-09-17T00:18:30;30.17;;;4.80;;
6999;SDS011;3540;53.242;10.408;2022-09-17T00:20:56;21.90;;;4.40;;
6999;SDS011;3540;53.242;10.408;2022-09-17T00:23:22;25.37;;;3.93;;
6999;SDS011;3540;53.242;10.408;2022-09-17T00:25:48;26.13;;;3.93;;
6999;SDS011;3540;53.242;10.408;2022-09-17T00:28:13;25.67;;;4.00;;
6999;SDS011;3540;53.242;10.408;2022-09-17T00:30:43;24.40;;;4.17;;
6999;SDS011;3540;53.242;10.408;2022-09-17T00:33:10;27.67;;;4.53;;
6999;SDS011;3540;53.242;10.408;2022-09-17T00:35:38;24.13;;;4.47;;
6999;SDS011;3540;53.242;10.408;2022-09-17T00:38:03;23.23;;;4.40;;
6999;SDS011;3540;53.242;10.408;2022-09-17T00:40:29;20.97;;;4.07;;
6999;SDS011;3540;53.242;10.408;2022-09-17T00:42:54;32.63;;;4.60;;
6999;SDS011;3540;53.242;10.408;2022-09-17T00:45:20;30.33;;;5.50;;
6999;SDS011;3540;53.242;10.408;2022-09-17T00:47:50;28.60;;;4.63;;
6999;SDS011;3540;53.242;10.408;2022-09-17T00:50:29;25.03;;;4.77;;
6999;SDS011;3540;53.242;10.408;2022-09-17T00:53:05;18.23;;;3.53;;
6999;SDS011;3540;53.242;10.408;2022-09-17T00:58:05;30.73;;;4.60;;
6999;SDS011;3540;53.242;10.408;2022-09-17T01:00:33;24.57;;;4.30;;
6999;SDS011;3540;53.242;10.408;2022-09-17T01:02:59;25.80;;;4.93;;
6999;SDS011;3540;53.242;10.408;2022-09-17T01:08:15;25.20;;;4.90;;
6999;SDS011;3540;53.242;10.408;2022-09-17T01:13:35;22.27;;;4.23;;
6999;SDS011;3540;53.242;10.408;2022-09-17T01:24:38;26.27;;;5.13;;
6999;SDS011;3540;53.242;10.408;2022-09-17T01:33:05;25.00;;;4.17;;
6999;SDS011;3540;53.242;10.408;2022-09-17T01:38:33;24.07;;;3.97;;
6999;SDS011;3540;53.242;10.408;2022-09-17T01:43:55;29.43;;;4.43;;
6999;SDS011;3540;53.242;10.408;2022-09-17T01:46:54;22.87;;;4.03;;
6999;SDS011;3540;53.242;10.408;2022-09-17T01:49:41;32.77;;;4.50;;
6999;SDS011;3540;53.242;10.408;2022-09-17T01:52:08;19.93;;;3.87;;
6999;SDS011;3540;53.242;10.408;2022-09-17T01:54:38;25.93;;;4.20;;
6999;SDS011;3540;53.242;10.408;2022-09-17T01:57:11;24.87;;;4.37;;
6999;SDS011;3540;53.242;10.408;2022-09-17T01:59:56;23.13;;;3.70;;
6999;SDS011;3540;53.242;10.408;2022-09-17T02:02:39;32.97;;;4.70;;
6999;SDS011;3540;53.242;10.408;2022-09-17T02:05:16;23.57;;;3.97;;
6999;SDS011;3540;53.242;10.408;2022-09-17T02:07:45;17.77;;;3.60;;
6999;SDS011;3540;53.242;10.408;2022-09-17T02:10:21;23.80;;;3.77;;
6999;SDS011;3540;53.242;10.408;2022-09-17T02:15:52;18.90;;;3.40;;
6999;SDS011;3540;53.242;10.408;2022-09-17T02:18:28;21.40;;;3.63;;
6999;SDS011;3540;53.242;10.408;2022-09-17T02:21:11;28.60;;;4.20;;
6999;SDS011;3540;53.242;10.408;2022-09-17T02:23:47;19.70;;;3.60;;
6999;SDS011;3540;53.242;10.408;2022-09-17T02:26:37;23.97;;;4.50;;
6999;SDS011;3540;53.242;10.408;2022-09-17T02:29:08;19.93;;;3.60;;
6999;SDS011;3540;53.242;10.408;2022-09-17T02:31:43;22.47;;;4.10;;
6999;SDS011;3540;53.242;10.408;2022-09-17T02:34:09;20.00;;;3.40;;
6999;SDS011;3540;53.242;10.408;2022-09-17T02:36:35;18.67;;;3.77;;
6999;SDS011;3540;53.242;10.408;2022-09-17T02:39:02;25.00;;;4.20;;
6999;SDS011;3540;53.242;10.408;2022-09-17T02:41:45;20.10;;;3.83;;
6999;SDS011;3540;53.242;10.408;2022-09-17T03:04:27;17.73;;;3.53;;
6999;SDS011;3540;53.242;10.408;2022-09-17T03:06:54;21.00;;;3.90;;
6999;SDS011;3540;53.242;10.408;2022-09-17T03:09:20;17.47;;;3.30;;
6999;SDS011;3540;53.242;10.408;2022-09-17T03:11:46;21.60;;;3.77;;
6999;SDS011;3540;53.242;10.408;2022-09-17T03:14:12;22.10;;;4.00;;
6999;SDS011;3540;53.242;10.408;2022-09-17T03:16:37;17.53;;;2.97;;
6999;SDS011;3540;53.242;10.408;2022-09-17T03:19:03;18.80;;;3.83;;
6999;SDS011;3540;53.242;10.408;2022-09-17T03:21:28;22.43;;;3.70;;
6999;SDS011;3540;53.242;10.408;2022-09-17T03:23:55;16.97;;;3.37;;
6999;SDS011;3540;53.242;10.408;2022-09-17T03:26:21;16.73;;;4.00;;
6999;SDS011;3540;53.242;10.408;2022-09-17T03:28:47;20.37;;;3.53;;
6999;SDS011;3540;53.242;10.408;2022-09-17T03:31:12;19.33;;;3.23;;
6999;SDS011;3540;53.242;10.408;2022-09-17T03:33:38;15.50;;;2.90;;
6999;SDS011;3540;53.242;10.408;2022-09-17T03:36:04;17.83;;;3.40;;
6999;SDS011;3540;53.242;10.408;2022-09-17T03:38:29;18.30;;;3.60;;
6999;SDS011;3540;53.242;10.408;2022-09-17T03:40:59;17.13;;;3.03;;
6999;SDS011;3540;53.242;10.408;2022-09-17T03:43:25;10.57;;;2.60;;
6999;SDS011;3540;53.242;10.408;2022-09-17T03:45:51;15.17;;;2.90;;
6999;SDS011;3540;53.242;10.408;2022-09-17T03:48:17;16.17;;;3.27;;
6999;SDS011;3540;53.242;10.408;2022-09-17T03:50:43;14.03;;;3.40;;
6999;SDS011;3540;53.242;10.408;2022-09-17T03:53:08;15.63;;;2.90;;
6999;SDS011;3540;53.242;10.408;2022-09-17T03:55:36;11.97;;;2.63;;
6999;SDS011;3540;53.242;10.408;2022-09-17T03:58:02;15.43;;;2.53;;
6999;SDS011;3540;53.242;10.408;2022-09-17T04:00:28;11.10;;;2.67;;
6999;SDS011;3540;53.242;10.408;2022-09-17T04:02:54;15.17;;;2.60;;
6999;SDS011;3540;53.242;10.408;2022-09-17T04:05:19;15.40;;;2.80;;
6999;SDS011;3540;53.242;10.408;2022-09-17T04:07:45;13.13;;;2.60;;
6999;SDS011;3540;53.242;10.408;2022-09-17T04:10:11;13.90;;;2.80;;
6999;SDS011;3540;53.242;10.408;2022-09-17T04:12:36;11.97;;;2.60;;
6999;SDS011;3540;53.242;10.408;2022-09-17T04:15:03;22.00;;;3.40;;
6999;SDS011;3540;53.242;10.408;2022-09-17T04:17:29;14.00;;;3.13;;
6999;SDS011;3540;53.242;10.408;2022-09-17T04:19:54;9.83;;;2.60;;
6999;SDS011;3540;53.242;10.408;2022-09-17T04:22:20;16.80;;;2.70;;
6999;SDS011;3540;53.242;10.408;2022-09-17T04:24:45;14.70;;;2.90;;
6999;SDS011;3540;53.242;10.408;2022-09-17T04:27:11;12.83;;;3.23;;
6999;SDS011;3540;53.242;10.408;2022-09-17T04:29:36;12.53;;;3.03;;
6999;SDS011;3540;53.242;10.408;2022-09-17T04:32:02;14.40;;;3.27;;
6999;SDS011;3540;53.242;10.408;2022-09-17T04:34:28;17.60;;;3.00;;
6999;SDS011;3540;53.242;10.408;2022-09-17T04:36:53;14.17;;;3.60;;
6999;SDS011;3540;53.242;10.408;2022-09-17T04:39:19;11.40;;;2.57;;
6999;SDS011;3540;53.242;10.408;2022-09-17T04:41:44;16.27;;;3.00;;
6999;SDS011;3540;53.242;10.408;2022-09-17T04:44:11;12.63;;;2.67;;
6999;SDS011;3540;53.242;10.408;2022-09-17T04:46:36;13.47;;;2.60;;
6999;SDS011;3540;53.242;10.408;2022-09-17T04:49:02;12.47;;;3.07;;
6999;SDS011;3540;53.242;10.408;2022-09-17T04:51:27;15.40;;;2.27;;
6999;SDS011;3540;53.242;10.408;2022-09-17T04:53:53;13.73;;;2.90;;
6999;SDS011;3540;53.242;10.408;2022-09-17T04:56:19;12.43;;;2.50;;
6999;SDS011;3540;53.242;10.408;2022-09-17T04:58:44;13.17;;;2.60;;
6999;SDS011;3540;53.242;10.408;2022-09-17T05:01:10;14.93;;;2.97;;
6999;SDS011;3540;53.242;10.408;2022-09-17T05:03:37;12.43;;;2.77;;
6999;SDS011;3540;53.242;10.408;2022-09-17T05:06:03;15.83;;;2.90;;
6999;SDS011;3540;53.242;10.408;2022-09-17T05:08:29;10.87;;;2.17;;
6999;SDS011;3540;53.242;10.408;2022-09-17T05:10:54;11.90;;;2.33;;
6999;SDS011;3540;53.242;10.408;2022-09-17T05:13:20;13.00;;;2.90;;
6999;SDS011;3540;53.242;10.408;2022-09-17T05:15:46;16.70;;;3.27;;
6999;SDS011;3540;53.242;10.408;2022-09-17T05:18:13;14.03;;;2.70;;
6999;SDS011;3540;53.242;10.408;2022-09-17T05:20:38;12.90;;;2.40;;
6999;SDS011;3540;53.242;10.408;2022-09-17T05:23:04;13.13;;;2.50;;
6999;SDS011;3540;53.242;10.408;2022-09-17T05:25:30;10.20;;;2.53;;
6999;SDS011;3540;53.242;10.408;2022-09-17T05:27:56;11.30;;;2.90;;
6999;SDS011;3540;53.242;10.408;2022-09-17T05:30:22;10.90;;;2.50;;
6999;SDS011;3540;53.242;10.408;2022-09-17T05:32:48;11.93;;;2.57;;
6999;SDS011;3540;53.242;10.408;2022-09-17T05:35:22;9.87;;;2.20;;
6999;SDS011;3540;53.242;10.408;2022-09-17T05:37:47;15.87;;;2.70;;
6999;SDS011;3540;53.242;10.408;2022-09-17T05:40:13;12.00;;;2.10;;
6999;SDS011;3540;53.242;10.408;2022-09-17T05:42:38;14.90;;;2.77;;
6999;SDS011;3540;53.242;10.408;2022-09-17T05:45:04;16.47;;;2.30;;
6999;SDS011;3540;53.242;10.408;2022-09-17T05:47:30;16.30;;;2.80;;
6999;SDS011;3540;53.242;10.408;2022-09-17T05:49:56;11.73;;;2.60;;
6999;SDS011;3540;53.242;10.408;2022-09-17T05:52:25;16.27;;;2.70;;
6999;SDS011;3540;53.242;10.408;2022-09-17T05:54:52;10.47;;;2.10;;
6999;SDS011;3540;53.242;10.408;2022-09-17T05:57:17;13.77;;;2.40;;
6999;SDS011;3540;53.242;10.408;2022-09-17T05:59:44;11.10;;;2.73;;
6999;SDS011;3540;53.242;10.408;2022-09-17T06:02:12;11.80;;;2.40;;
6999;SDS011;3540;53.242;10.408;2022-09-17T06:04:38;10.13;;;2.10;;
6999;SDS011;3540;53.242;10.408;2022-09-17T06:07:04;12.07;;;2.50;;
6999;SDS011;3540;53.242;10.408;2022-09-17T06:09:36;17.73;;;3.47;;
6999;SDS011;3540;53.242;10.408;2022-09-17T06:12:02;9.43;;;2.40;;
6999;SDS011;3540;53.242;10.408;2022-09-17T06:14:29;12.80;;;2.47;;
6999;SDS011;3540;53.242;10.408;2022-09-17T06:16:55;22.07;;;3.07;;
6999;SDS011;3540;53.242;10.408;2022-09-17T06:19:21;11.83;;;2.77;;
6999;SDS011;3540;53.242;10.408;2022-09-17T06:21:46;15.43;;;2.70;;
6999;SDS011;3540;53.242;10.408;2022-09-17T06:24:14;11.57;;;2.40;;
6999;SDS011;3540;53.242;10.408;2022-09-17T06:26:40;13.37;;;2.43;;
6999;SDS011;3540;53.242;10.408;2022-09-17T06:29:06;14.07;;;2.60;;
6999;SDS011;3540;53.242;10.408;2022-09-17T06:31:32;12.80;;;3.00;;
6999;SDS011;3540;53.242;10.408;2022-09-17T06:33:57;15.87;;;2.70;;
6999;SDS011;3540;53.242;10.408;2022-09-17T06:36:23;16.10;;;3.33;;
6999;SDS011;3540;53.242;10.408;2022-09-17T06:38:49;15.10;;;2.80;;
6999;SDS011;3540;53.242;10.408;2022-09-17T06:41:15;20.93;;;3.03;;
6999;SDS011;3540;53.242;10.408;2022-09-17T06:43:41;13.80;;;2.63;;
6999;SDS011;3540;53.242;10.408;2022-09-17T06:46:08;13.97;;;2.80;;
6999;SDS011;3540;53.242;10.408;2022-09-17T06:48:34;14.03;;;3.20;;
6999;SDS011;3540;53.242;10.408;2022-09-17T06:51:04;23.73;;;3.30;;
6999;SDS011;3540;53.242;10.408;2022-09-17T06:53:32;14.97;;;3.00;;
6999;SDS011;3540;53.242;10.408;2022-09-17T06:56:00;14.63;;;2.57;;
6999;SDS011;3540;53.242;10.408;2022-09-17T06:58:27;17.90;;;3.03;;
6999;SDS011;3540;53.242;10.408;2022-09-17T07:00:56;17.33;;;3.00;;
6999;SDS011;3540;53.242;10.408;2022-09-17T07:03:26;14.87;;;2.90;;
6999;SDS011;3540;53.242;10.408;2022-09-17T07:05:52;19.33;;;3.17;;
6999;SDS011;3540;53.242;10.408;2022-09-17T07:08:18;16.43;;;3.43;;
6999;SDS011;3540;53.242;10.408;2022-09-17T07:10:44;16.70;;;3.73;;
6999;SDS011;3540;53.242;10.408;2022-09-17T07:13:09;14.60;;;3.20;;
6999;SDS011;3540;53.242;10.408;2022-09-17T07:15:35;15.70;;;2.90;;
6999;SDS011;3540;53.242;10.408;2022-09-17T07:18:07;17.67;;;3.07;;
6999;SDS011;3540;53.242;10.408;2022-09-17T07:20:34;16.13;;;2.90;;
6999;SDS011;3540;53.242;10.408;2022-09-17T07:23:00;15.67;;;2.90;;
6999;SDS011;3540;53.242;10.408;2022-09-17T07:25:26;13.70;;;2.63;;
6999;SDS011;3540;53.242;10.408;2022-09-17T07:27:52;16.20;;;2.90;;
6999;SDS011;3540;53.242;10.408;2022-09-17T07:30:18;15.77;;;3.00;;
6999;SDS011;3540;53.242;10.408;2022-09-17T07:32:45;13.80;;;2.77;;
6999;SDS011;3540;53.242;10.408;2022-09-17T07:35:11;13.53;;;2.90;;
6999;SDS011;3540;53.242;10.408;2022-09-17T07:37:37;7.77;;;2.10;;
6999;SDS011;3540;53.242;10.408;2022-09-17T07:40:03;22.93;;;4.33;;
6999;SDS011;3540;53.242;10.408;2022-09-17T07:42:32;12.27;;;2.47;;
6999;SDS011;3540;53.242;10.408;2022-09-17T07:44:58;11.50;;;2.60;;
6999;SDS011;3540;53.242;10.408;2022-09-17T07:47:24;14.67;;;2.83;;
6999;SDS011;3540;53.242;10.408;2022-09-17T07:49:50;15.37;;;3.10;;
6999;SDS011;3540;53.242;10.408;2022-09-17T07:52:15;19.60;;;3.40;;
6999;SDS011;3540;53.242;10.408;2022-09-17T07:54:41;10.27;;;2.50;;
6999;SDS011;3540;53.242;10.408;2022-09-17T07:57:06;12.93;;;2.80;;
6999;SDS011;3540;53.242;10.408;2022-09-17T07:59:32;10.50;;;3.00;;
6999;SDS011;3540;53.242;10.408;2022-09-17T08:01:58;16.90;;;3.10;;
6999;SDS011;3540;53.242;10.408;2022-09-17T08:04:23;11.07;;;2.83;;
6999;SDS011;3540;53.242;10.408;2022-09-17T08:06:49;17.67;;;2.90;;
6999;SDS011;3540;53.242;10.408;2022-09-17T08:09:15;12.07;;;2.80;;
6999;SDS011;3540;53.242;10.408;2022-09-17T08:11:42;12.63;;;2.60;;
6999;SDS011;3540;53.242;10.408;2022-09-17T08:14:09;13.87;;;2.90;;
6999;SDS011;3540;53.242;10.408;2022-09-17T08:16:36;11.20;;;2.70;;
6999;SDS011;3540;53.242;10.408;2022-09-17T08:19:02;13.57;;;2.57;;
6999;SDS011;3540;53.242;10.408;2022-09-17T08:21:27;10.83;;;2.60;;
6999;SDS011;3540;53.242;10.408;2022-09-17T08:23:53;14.27;;;2.80;;
6999;SDS011;3540;53.242;10.408;2022-09-17T08:26:19;13.80;;;2.60;;
6999;SDS011;3540;53.242;10.408;2022-09-17T08:28:51;11.40;;;2.53;;
6999;SDS011;3540;53.242;10.408;2022-09-17T08:31:21;15.60;;;2.63;;
6999;SDS011;3540;53.242;10.408;2022-09-17T08:33:48;7.77;;;2.33;;
6999;SDS011;3540;53.242;10.408;2022-09-17T08:36:15;9.53;;;2.40;;
6999;SDS011;3540;53.242;10.408;2022-09-17T08:38:41;11.83;;;2.60;;
6999;SDS011;3540;53.242;10.408;2022-09-17T08:46:30;10.93;;;2.20;;
6999;SDS011;3540;53.242;10.408;2022-09-17T08:54:47;8.13;;;2.33;;
6999;SDS011;3540;53.242;10.408;2022-09-17T09:00:21;9.73;;;2.20;;
6999;SDS011;3540;53.242;10.408;2022-09-17T09:02:58;7.60;;;2.30;;
6999;SDS011;3540;53.242;10.408;2022-09-17T09:05:45;10.27;;;2.43;;
6999;SDS011;3540;53.242;10.408;2022-09-17T09:08:18;9.73;;;2.47;;
6999;SDS011;3540;53.242;10.408;2022-09-17T09:10:57;9.70;;;2.30;;
6999;SDS011;3540;53.242;10.408;2022-09-17T09:13:27;9.70;;;2.03;;
6999;SDS011;3540;53.242;10.408;2022-09-17T09:15:58;10.83;;;2.03;;
6999;SDS011;3540;53.242;10.408;2022-09-17T09:18:31;5.60;;;1.97;;
6999;SDS011;3540;53.242;10.408;2022-09-17T09:26:21;7.00;;;1.60;;
6999;SDS011;3540;53.242;10.408;2022-09-17T09:29:04;6.57;;;1.70;;
6999;SDS011;3540;53.242;10.408;2022-09-17T09:34:17;7.43;;;1.70;;
6999;SDS011;3540;53.242;10.408;2022-09-17T09:36:44;6.87;;;2.00;;
6999;SDS011;3540;53.242;10.408;2022-09-17T09:39:14;7.00;;;1.80;;
6999;SDS011;3540;53.242;10.408;2022-09-17T09:41:53;5.30;;;1.53;;
6999;SDS011;3540;53.242;10.408;2022-09-17T09:44:23;4.70;;;1.73;;
6999;SDS011;3540;53.242;10.408;2022-09-17T09:47:11;7.77;;;1.80;;
6999;SDS011;3540;53.242;10.408;2022-09-17T09:49:46;6.27;;;1.90;;
6999;SDS011;3540;53.242;10.408;2022-09-17T09:55:16;8.03;;;2.37;;
6999;SDS011;3540;53.242;10.408;2022-09-17T09:58:30;5.47;;;2.00;;
6999;SDS011;3540;53.242;10.408;2022-09-17T10:00:46;6.53;;;1.90;;
6999;SDS011;3540;53.242;10.408;2022-09-17T10:03:22;7.10;;;1.93;;
6999;SDS011;3540;53.242;10.408;2022-09-17T10:06:06;5.30;;;1.80;;
6999;SDS011;3540;53.242;10.408;2022-09-17T10:08:34;6.47;;;1.70;;
6999;SDS011;3540;53.242;10.408;2022-09-17T10:13:37;6.60;;;1.97;;
6999;SDS011;3540;53.242;10.408;2022-09-17T10:16:26;5.33;;;1.50;;
6999;SDS011;3540;53.242;10.408;2022-09-17T10:23:55;2.90;;;1.20;;
6999;SDS011;3540;53.242;10.408;2022-09-17T10:26:23;3.70;;;1.30;;
6999;SDS011;3540;53.242;10.408;2022-09-17T10:28:55;4.07;;;1.23;;
6999;SDS011;3540;53.242;10.408;2022-09-17T10:31:23;5.53;;;1.40;;
6999;SDS011;3540;53.242;10.408;2022-09-17T10:39:32;3.27;;;1.17;;
6999;SDS011;3540;53.242;10.408;2022-09-17T10:41:57;5.03;;;1.30;;
6999;SDS011;3540;53.242;10.408;2022-09-17T10:44:56;3.87;;;1.87;;
6999;SDS011;3540;53.242;10.408;2022-09-17T10:47:30;8.60;;;2.50;;
6999;SDS011;3540;53.242;10.408;2022-09-17T10:50:03;3.60;;;1.50;;
6999;SDS011;3540;53.242;10.408;2022-09-17T10:52:36;5.27;;;1.90;;
6999;SDS011;3540;53.242;10.408;2022-09-17T11:00:32;3.83;;;1.40;;
6999;SDS011;3540;53.242;10.408;2022-09-17T11:12:17;1.53;;;1.20;;
6999;SDS011;3540;53.242;10.408;2022-09-17T11:17:12;4.57;;;1.40;;
6999;SDS011;3540;53.242;10.408;2022-09-17T11:19:57;1.50;;;1.00;;
6999;SDS011;3540;53.242;10.408;2022-09-17T11:31:01;3.13;;;1.40;;
6999;SDS011;3540;53.242;10.408;2022-09-17T11:34:01;4.23;;;1.30;;
6999;SDS011;3540;53.242;10.408;2022-09-17T11:36:49;4.47;;;1.33;;
6999;SDS011;3540;53.242;10.408;2022-09-17T11:40:11;3.67;;;1.40;;
6999;SDS011;3540;53.242;10.408;2022-09-17T11:42:47;3.47;;;1.30;;
6999;SDS011;3540;53.242;10.408;2022-09-17T11:45:16;3.77;;;1.53;;
6999;SDS011;3540;53.242;10.408;2022-09-17T11:47:54;4.43;;;1.40;;
6999;SDS011;3540;53.242;10.408;2022-09-17T11:50:45;5.83;;;1.50;;
6999;SDS011;3540;53.242;10.408;2022-09-17T11:56:04;6.80;;;1.70;;
6999;SDS011;3540;53.242;10.408;2022-09-17T12:01:10;4.13;;;1.60;;
6999;SDS011;3540;53.242;10.408;2022-09-17T12:03:47;2.63;;;1.20;;
6999;SDS011;3540;53.242;10.408;2022-09-17T12:06:28;4.70;;;1.50;;
6999;SDS011;3540;53.242;10.408;2022-09-17T12:09:14;3.80;;;1.67;;
6999;SDS011;3540;53.242;10.408;2022-09-17T12:11:46;3.93;;;1.50;;
6999;SDS011;3540;53.242;10.408;2022-09-17T12:16:58;3.83;;;1.50;;
6999;SDS011;3540;53.242;10.408;2022-09-17T12:19:28;5.50;;;1.70;;
6999;SDS011;3540;53.242;10.408;2022-09-17T12:22:11;4.13;;;1.20;;
6999;SDS011;3540;53.242;10.408;2022-09-17T12:24:41;3.77;;;1.50;;
6999;SDS011;3540;53.242;10.408;2022-09-17T13:00:35;3.60;;;1.40;;
6999;SDS011;3540;53.242;10.408;2022-09-17T13:03:18;6.77;;;1.77;;
6999;SDS011;3540;53.242;10.408;2022-09-17T13:14:18;4.83;;;1.63;;
6999;SDS011;3540;53.242;10.408;2022-09-17T13:19:45;5.13;;;1.43;;
6999;SDS011;3540;53.242;10.408;2022-09-17T13:22:19;7.73;;;1.77;;
6999;SDS011;3540;53.242;10.408;2022-09-17T13:24:47;3.93;;;1.50;;
6999;SDS011;3540;53.242;10.408;2022-09-17T13:27:27;4.37;;;1.70;;
6999;SDS011;3540;53.242;10.408;2022-09-17T13:37:53;7.53;;;2.10;;
6999;SDS011;3540;53.242;10.408;2022-09-17T13:40:25;6.57;;;1.90;;
6999;SDS011;3540;53.242;10.408;2022-09-17T13:43:12;7.70;;;1.80;;
6999;SDS011;3540;53.242;10.408;2022-09-17T13:48:47;5.27;;;1.70;;
6999;SDS011;3540;53.242;10.408;2022-09-17T13:54:00;6.10;;;2.20;;
6999;SDS011;3540;53.242;10.408;2022-09-17T14:04:31;4.80;;;1.70;;
6999;SDS011;3540;53.242;10.408;2022-09-17T14:09:54;5.30;;;1.70;;
6999;SDS011;3540;53.242;10.408;2022-09-17T14:15:35;3.70;;;1.40;;
6999;SDS011;3540;53.242;10.408;2022-09-17T14:18:01;5.77;;;1.90;;
6999;SDS011;3540;53.242;10.408;2022-09-17T14:20:54;5.73;;;1.70;;
6999;SDS011;3540;53.242;10.408;2022-09-17T14:23:33;4.47;;;1.50;;
6999;SDS011;3540;53.242;10.408;2022-09-17T14:26:06;4.77;;;1.53;;
6999;SDS011;3540;53.242;10.408;2022-09-17T14:28:48;5.57;;;1.80;;
6999;SDS011;3540;53.242;10.408;2022-09-17T14:31:37;4.03;;;1.37;;
6999;SDS011;3540;53.242;10.408;2022-09-17T14:34:04;4.43;;;1.40;;
6999;SDS011;3540;53.242;10.408;2022-09-17T14:36:32;4.03;;;1.47;;
6999;SDS011;3540;53.242;10.408;2022-09-17T14:39:02;3.27;;;1.43;;
6999;SDS011;3540;53.242;10.408;2022-09-17T14:41:33;6.07;;;1.60;;
6999;SDS011;3540;53.242;10.408;2022-09-17T14:46:40;7.07;;;1.73;;
6999;SDS011;3540;53.242;10.408;2022-09-17T14:51:43;8.20;;;2.23;;
6999;SDS011;3540;53.242;10.408;2022-09-17T14:54:16;6.67;;;1.70;;
6999;SDS011;3540;53.242;10.408;2022-09-17T14:59:19;8.77;;;2.13;;
6999;SDS011;3540;53.242;10.408;2022-09-17T15:02:27;7.97;;;1.80;;
6999;SDS011;3540;53.242;10.408;2022-09-17T15:04:59;7.23;;;1.73;;
6999;SDS011;3540;53.242;10.408;2022-09-17T15:07:26;6.83;;;1.63;;
6999;SDS011;3540;53.242;10.408;2022-09-17T15:09:52;8.73;;;1.80;;
6999;SDS011;3540;53.242;10.408;2022-09-17T15:12:20;5.27;;;1.90;;
6999;SDS011;3540;53.242;10.408;2022-09-17T15:14:52;6.03;;;1.60;;
6999;SDS011;3540;53.242;10.408;2022-09-17T15:17:20;10.70;;;2.03;;
6999;SDS011;3540;53.242;10.408;2022-09-17T15:19:47;9.83;;;1.93;;
6999;SDS011;3540;53.242;10.408;2022-09-17T15:22:19;4.63;;;1.70;;
6999;SDS011;3540;53.242;10.408;2022-09-17T15:27:19;6.93;;;1.70;;
6999;SDS011;3540;53.242;10.408;2022-09-17T15:29:53;6.03;;;1.73;;
6999;SDS011;3540;53.242;10.408;2022-09-17T15:32:34;5.30;;;1.53;;
6999;SDS011;3540;53.242;10.408;2022-09-17T15:35:16;9.33;;;2.03;;
6999;SDS011;3540;53.242;10.408;2022-09-17T15:37:47;4.27;;;1.60;;
6999;SDS011;3540;53.242;10.408;2022-09-17T15:45:45;6.57;;;1.90;;
6999;SDS011;3540;53.242;10.408;2022-09-17T15:50:52;10.83;;;2.00;;
6999;SDS011;3540;53.242;10.408;2022-09-17T15:53:23;5.67;;;1.70;;
6999;SDS011;3540;53.242;10.408;2022-09-17T16:06:37;3.53;;;1.20;;
6999;SDS011;3540;53.242;10.408;2022-09-17T16:08:58;8.80;;;1.43;;
6999;SDS011;3540;53.242;10.408;2022-09-17T16:11:26;4.80;;;1.43;;
6999;SDS011;3540;53.242;10.408;2022-09-17T16:13:53;5.57;;;1.37;;
6999;SDS011;3540;53.242;10.408;2022-09-17T16:16:22;4.73;;;1.30;;
6999;SDS011;3540;53.242;10.408;2022-09-17T16:18:56;3.80;;;1.40;;
6999;SDS011;3540;53.242;10.408;2022-09-17T16:21:22;3.83;;;1.30;;
6999;SDS011;3540;53.242;10.408;2022-09-17T16:23:47;1.77;;;1.20;;
6999;SDS011;3540;53.242;10.408;2022-09-17T16:26:17;4.70;;;1.53;;
6999;SDS011;3540;53.242;10.408;2022-09-17T16:28:45;5.43;;;1.60;;
6999;SDS011;3540;53.242;10.408;2022-09-17T16:31:13;4.90;;;1.60;;
6999;SDS011;3540;53.242;10.408;2022-09-17T16:33:39;8.73;;;1.63;;
6999;SDS011;3540;53.242;10.408;2022-09-17T16:36:05;5.17;;;1.40;;
6999;SDS011;3540;53.242;10.408;2022-09-17T16:38:31;4.60;;;1.53;;
6999;SDS011;3540;53.242;10.408;2022-09-17T16:40:56;3.60;;;1.60;;
6999;SDS011;3540;53.242;10.408;2022-09-17T16:43:22;6.50;;;1.67;;
6999;SDS011;3540;53.242;10.408;2022-09-17T16:45:57;2.83;;;1.53;;
6999;SDS011;3540;53.242;10.408;2022-09-17T16:48:23;8.27;;;2.10;;
6999;SDS011;3540;53.242;10.408;2022-09-17T16:50:49;3.80;;;1.80;;
6999;SDS011;3540;53.242;10.408;2022-09-17T16:53:14;8.50;;;2.30;;
6999;SDS011;3540;53.242;10.408;2022-09-17T16:55:40;7.93;;;2.30;;
6999;SDS011;3540;53.242;10.408;2022-09-17T16:58:05;6.13;;;2.33;;
6999;SDS011;3540;53.242;10.408;2022-09-17T17:00:31;6.63;;;2.40;;
6999;SDS011;3540;53.242;10.408;2022-09-17T17:02:57;5.37;;;2.20;;
6999;SDS011;3540;53.242;10.408;2022-09-17T17:05:23;6.93;;;2.23;;
6999;SDS011;3540;53.242;10.408;2022-09-17T17:07:50;7.20;;;2.50;;
6999;SDS011;3540;53.242;10.408;2022-09-17T17:10:16;5.77;;;2.10;;
6999;SDS011;3540;53.242;10.408;2022-09-17T17:12:42;5.90;;;2.13;;
6999;SDS011;3540;53.242;10.408;2022-09-17T17:15:08;9.60;;;2.50;;
6999;SDS011;3540;53.242;10.408;2022-09-17T17:17:34;4.90;;;2.20;;
6999;SDS011;3540;53.242;10.408;2022-09-17T17:20:00;5.30;;;2.10;;
6999;SDS011;3540;53.242;10.408;2022-09-17T17:22:31;7.77;;;2.37;;
6999;SDS011;3540;53.242;10.408;2022-09-17T17:24:57;6.20;;;2.20;;
6999;SDS011;3540;53.242;10.408;2022-09-17T17:27:22;7.37;;;2.17;;
6999;SDS011;3540;53.242;10.408;2022-09-17T17:29:48;6.77;;;2.10;;
6999;SDS011;3540;53.242;10.408;2022-09-17T17:32:13;8.83;;;2.50;;
6999;SDS011;3540;53.242;10.408;2022-09-17T17:34:39;10.33;;;2.20;;
6999;SDS011;3540;53.242;10.408;2022-09-17T17:37:05;5.77;;;2.27;;
6999;SDS011;3540;53.242;10.408;2022-09-17T17:39:30;8.17;;;2.67;;
6999;SDS011;3540;53.242;10.408;2022-09-17T17:41:56;5.87;;;2.03;;
6999;SDS011;3540;53.242;10.408;2022-09-17T17:44:21;5.93;;;1.90;;
6999;SDS011;3540;53.242;10.408;2022-09-17T17:46:47;5.77;;;2.00;;
6999;SDS011;3540;53.242;10.408;2022-09-17T17:49:12;6.73;;;2.60;;
6999;SDS011;3540;53.242;10.408;2022-09-17T17:51:38;6.13;;;2.00;;
6999;SDS011;3540;53.242;10.408;2022-09-17T17:54:04;7.70;;;2.27;;
6999;SDS011;3540;53.242;10.408;2022-09-17T17:56:30;4.77;;;1.70;;
6999;SDS011;3540;53.242;10.408;2022-09-17T17:58:55;9.97;;;2.43;;
6999;SDS011;3540;53.242;10.408;2022-09-17T18:01:26;6.33;;;1.60;;
6999;SDS011;3540;53.242;10.408;2022-09-17T18:03:56;9.80;;;2.00;;
6999;SDS011;3540;53.242;10.408;2022-09-17T18:06:23;9.70;;;2.20;;
6999;SDS011;3540;53.242;10.408;2022-09-17T18:08:49;7.63;;;2.03;;
6999;SDS011;3540;53.242;10.408;2022-09-17T18:11:14;7.87;;;2.40;;
6999;SDS011;3540;53.242;10.408;2022-09-17T18:13:40;9.37;;;2.30;;
6999;SDS011;3540;53.242;10.408;2022-09-17T18:16:06;7.77;;;2.63;;
6999;SDS011;3540;53.242;10.408;2022-09-17T18:18:35;7.70;;;2.20;;
6999;SDS011;3540;53.242;10.408;2022-09-17T18:21:04;8.87;;;2.70;;
6999;SDS011;3540;53.242;10.408;2022-09-17T18:23:32;13.17;;;2.53;;
6999;SDS011;3540;53.242;10.408;2022-09-17T18:25:59;7.23;;;2.50;;
6999;SDS011;3540;53.242;10.408;2022-09-17T18:28:26;12.37;;;2.60;;
6999;SDS011;3540;53.242;10.408;2022-09-17T18:30:54;11.03;;;3.00;;
6999;SDS011;3540;53.242;10.408;2022-09-17T18:33:24;7.57;;;2.20;;
6999;SDS011;3540;53.242;10.408;2022-09-17T18:35:51;8.67;;;2.80;;
6999;SDS011;3540;53.242;10.408;2022-09-17T18:38:21;10.07;;;2.63;;
6999;SDS011;3540;53.242;10.408;2022-09-17T18:40:47;11.13;;;2.37;;
6999;SDS011;3540;53.242;10.408;2022-09-17T18:43:13;9.50;;;2.63;;
6999;SDS011;3540;53.242;10.408;2022-09-17T18:45:38;10.97;;;2.83;;
6999;SDS011;3540;53.242;10.408;2022-09-17T18:48:04;10.27;;;2.23;;
6999;SDS011;3540;53.242;10.408;2022-09-17T18:50:30;6.23;;;2.20;;
6999;SDS011;3540;53.242;10.408;2022-09-17T18:52:56;7.43;;;2.00;;